sensor_id;sensor_type;location;lat;lon;timestamp;pressure;altitude;pressure_sealevel;temperature;humidity
2841;BME280;53423;49.224;12.074;2022-12-18T00:01:47;99110.53;;;-3.82;69.32
2841;BME280;53423;49.224;12.074;2022-12-18T00:04:20;99104.44;;;-3.78;69.45
2841;BME280;53423;49.224;12.074;2022-12-18T00:06:49;99105.53;;;-4.18;70.58
2841;BME280;53423;49.224;12.074;2022-12-18T00:09:17;99096.22;;;-4.21;71.68
2841;BME280;53423;49.224;12.074;2022-12-18T00:11:45;99092.31;;;-4.03;71.45
2841;BME280;53423;49.224;12.074;2022-12-18T00:14:15;99086.03;;;-3.90;70.22
2841;BME280;53423;49.224;12.074;2022-12-18T00:16:44;99085.63;;;-4.07;71.37
2841;BME280;53423;49.224;12.074;2022-12-18T00:19:13;99102.19;;;-4.20;70.84
2841;BME280;53423;49.224;12.074;2022-12-18T00:21:42;99083.69;;;-4.31;72.16
2841;BME280;53423;49.224;12.074;2022-12-18T00:24:11;99086.53;;;-4.43;72.60
2841;BME280;53423;49.224;12.074;2022-12-18T00:26:39;99094.78;;;-4.31;71.79
2841;BME280;53423;49.224;12.074;2022-12-18T00:29:09;99103.69;;;-4.47;73.07
2841;BME280;53423;49.224;12.074;2022-12-18T00:31:41;99106.31;;;-4.85;74.39
2841;BME280;53423;49.224;12.074;2022-12-18T00:34:10;99105.38;;;-4.81;74.33
2841;BME280;53423;49.224;12.074;2022-12-18T00:36:39;99120.56;;;-4.75;73.93
2841;BME280;53423;49.224;12.074;2022-12-18T00:39:07;99129.13;;;-4.41;72.48
2841;BME280;53423;49.224;12.074;2022-12-18T00:41:35;99127.78;;;-4.20;71.82
2841;BME280;53423;49.224;12.074;2022-12-18T00:44:20;99131.69;;;-4.07;71.35
2841;BME280;53423;49.224;12.074;2022-12-18T00:46:50;99135.81;;;-4.02;71.03
2841;BME280;53423;49.224;12.074;2022-12-18T00:49:19;99136.50;;;-3.95;70.81
2841;BME280;53423;49.224;12.074;2022-12-18T00:51:47;99136.66;;;-4.01;71.08
2841;BME280;53423;49.224;12.074;2022-12-18T00:54:16;99135.06;;;-4.05;70.36
2841;BME280;53423;49.224;12.074;2022-12-18T00:56:44;99140.22;;;-4.42;71.79
2841;BME280;53423;49.224;12.074;2022-12-18T00:59:15;99135.31;;;-4.49;71.73
2841;BME280;53423;49.224;12.074;2022-12-18T01:01:44;99141.63;;;-4.29;72.18
2841;BME280;53423;49.224;12.074;2022-12-18T01:04:14;99134.59;;;-4.21;71.43
2841;BME280;53423;49.224;12.074;2022-12-18T01:06:42;99142.34;;;-4.57;72.09
2841;BME280;53423;49.224;12.074;2022-12-18T01:09:10;99140.25;;;-4.43;72.02
2841;BME280;53423;49.224;12.074;2022-12-18T01:11:38;99143.97;;;-4.55;71.19
2841;BME280;53423;49.224;12.074;2022-12-18T01:14:06;99146.47;;;-4.53;71.79
2841;BME280;53423;49.224;12.074;2022-12-18T01:16:34;99150.38;;;-4.37;71.38
2841;BME280;53423;49.224;12.074;2022-12-18T01:19:02;99147.56;;;-4.28;71.44
2841;BME280;53423;49.224;12.074;2022-12-18T01:21:32;99154.09;;;-4.15;70.40
2841;BME280;53423;49.224;12.074;2022-12-18T01:24:00;99148.72;;;-4.06;70.36
2841;BME280;53423;49.224;12.074;2022-12-18T01:26:28;99152.53;;;-3.89;69.51
2841;BME280;53423;49.224;12.074;2022-12-18T01:28:57;99157.13;;;-4.35;69.72
2841;BME280;53423;49.224;12.074;2022-12-18T01:31:27;99153.66;;;-4.32;70.42
2841;BME280;53423;49.224;12.074;2022-12-18T01:33:57;99165.56;;;-4.31;70.49
2841;BME280;53423;49.224;12.074;2022-12-18T01:36:26;99160.53;;;-4.34;69.41
2841;BME280;53423;49.224;12.074;2022-12-18T01:38:56;99165.03;;;-4.44;69.99
2841;BME280;53423;49.224;12.074;2022-12-18T01:41:29;99159.50;;;-4.27;70.04
2841;BME280;53423;49.224;12.074;2022-12-18T01:47:32;99140.09;;;-4.02;69.04
2841;BME280;53423;49.224;12.074;2022-12-18T01:50:03;99140.22;;;-4.42;69.65
2841;BME280;53423;49.224;12.074;2022-12-18T01:52:33;99145.28;;;-4.39;70.06
2841;BME280;53423;49.224;12.074;2022-12-18T01:55:05;99155.91;;;-4.54;70.65
2841;BME280;53423;49.224;12.074;2022-12-18T01:57:33;99156.50;;;-4.44;70.58
2841;BME280;53423;49.224;12.074;2022-12-18T02:00:05;99169.94;;;-4.36;69.66
2841;BME280;53423;49.224;12.074;2022-12-18T02:02:33;99167.31;;;-4.33;69.43
2841;BME280;53423;49.224;12.074;2022-12-18T02:05:02;99173.41;;;-4.37;69.28
2841;BME280;53423;49.224;12.074;2022-12-18T02:07:38;99168.09;;;-4.30;69.34
2841;BME280;53423;49.224;12.074;2022-12-18T02:10:15;99171.19;;;-4.17;69.08
2841;BME280;53423;49.224;12.074;2022-12-18T02:12:50;99179.59;;;-4.12;68.77
2841;BME280;53423;49.224;12.074;2022-12-18T02:15:25;99175.34;;;-4.12;67.78
2841;BME280;53423;49.224;12.074;2022-12-18T02:17:59;99170.75;;;-4.34;70.00
2841;BME280;53423;49.224;12.074;2022-12-18T02:20:34;99180.41;;;-4.10;68.75
2841;BME280;53423;49.224;12.074;2022-12-18T02:23:11;99176.41;;;-4.20;69.19
2841;BME280;53423;49.224;12.074;2022-12-18T02:26:07;99187.41;;;-4.18;69.05
2841;BME280;53423;49.224;12.074;2022-12-18T02:28:45;99182.13;;;-4.11;68.30
2841;BME280;53423;49.224;12.074;2022-12-18T02:31:19;99181.34;;;-4.14;68.35
2841;BME280;53423;49.224;12.074;2022-12-18T02:33:50;99181.56;;;-4.22;68.42
2841;BME280;53423;49.224;12.074;2022-12-18T02:36:20;99186.25;;;-4.40;69.88
2841;BME280;53423;49.224;12.074;2022-12-18T02:38:50;99185.94;;;-4.27;69.73
2841;BME280;53423;49.224;12.074;2022-12-18T02:41:21;99184.19;;;-4.26;68.88
2841;BME280;53423;49.224;12.074;2022-12-18T02:43:55;99186.94;;;-3.99;68.19
2841;BME280;53423;49.224;12.074;2022-12-18T02:46:28;99188.94;;;-4.11;68.35
2841;BME280;53423;49.224;12.074;2022-12-18T02:49:05;99196.78;;;-4.17;68.91
2841;BME280;53423;49.224;12.074;2022-12-18T02:51:42;99194.28;;;-4.19;68.72
2841;BME280;53423;49.224;12.074;2022-12-18T02:54:21;99185.28;;;-4.36;70.09
2841;BME280;53423;49.224;12.074;2022-12-18T02:56:55;99181.16;;;-4.40;68.52
2841;BME280;53423;49.224;12.074;2022-12-18T02:59:30;99177.50;;;-4.30;69.19
2841;BME280;53423;49.224;12.074;2022-12-18T03:02:10;99173.06;;;-4.24;68.75
2841;BME280;53423;49.224;12.074;2022-12-18T03:04:47;99164.94;;;-4.06;68.80
2841;BME280;53423;49.224;12.074;2022-12-18T03:07:23;99166.22;;;-4.23;68.73
2841;BME280;53423;49.224;12.074;2022-12-18T03:09:54;99159.47;;;-4.26;69.00
2841;BME280;53423;49.224;12.074;2022-12-18T03:12:30;99163.91;;;-4.32;69.59
2841;BME280;53423;49.224;12.074;2022-12-18T03:15:03;99164.38;;;-4.17;68.49
2841;BME280;53423;49.224;12.074;2022-12-18T03:17:33;99163.66;;;-4.23;68.86
2841;BME280;53423;49.224;12.074;2022-12-18T03:20:04;99171.41;;;-4.26;68.41
2841;BME280;53423;49.224;12.074;2022-12-18T03:22:35;99170.94;;;-4.42;69.85
2841;BME280;53423;49.224;12.074;2022-12-18T03:25:07;99177.59;;;-4.35;69.47
2841;BME280;53423;49.224;12.074;2022-12-18T03:27:41;99175.47;;;-4.18;68.83
2841;BME280;53423;49.224;12.074;2022-12-18T03:30:13;99170.59;;;-4.28;69.42
2841;BME280;53423;49.224;12.074;2022-12-18T03:32:44;99171.41;;;-4.26;68.24
2841;BME280;53423;49.224;12.074;2022-12-18T03:35:18;99164.50;;;-4.23;68.87
2841;BME280;53423;49.224;12.074;2022-12-18T03:37:48;99166.19;;;-4.22;69.28
2841;BME280;53423;49.224;12.074;2022-12-18T03:40:17;99158.53;;;-4.22;68.42
2841;BME280;53423;49.224;12.074;2022-12-18T03:42:49;99173.47;;;-4.05;68.78
2841;BME280;53423;49.224;12.074;2022-12-18T03:45:23;99162.19;;;-4.00;69.19
2841;BME280;53423;49.224;12.074;2022-12-18T03:47:59;99164.34;;;-3.83;68.37
2841;BME280;53423;49.224;12.074;2022-12-18T03:50:36;99163.28;;;-3.76;67.74
2841;BME280;53423;49.224;12.074;2022-12-18T03:53:13;99165.09;;;-3.80;67.86
2841;BME280;53423;49.224;12.074;2022-12-18T03:55:43;99167.22;;;-3.95;68.50
2841;BME280;53423;49.224;12.074;2022-12-18T03:58:17;99166.41;;;-3.97;68.88
2841;BME280;53423;49.224;12.074;2022-12-18T04:00:47;99171.41;;;-3.93;69.36
2841;BME280;53423;49.224;12.074;2022-12-18T04:03:18;99186.22;;;-4.04;69.10
2841;BME280;53423;49.224;12.074;2022-12-18T04:05:54;99195.03;;;-4.15;69.20
2841;BME280;53423;49.224;12.074;2022-12-18T04:08:23;99199.63;;;-3.94;69.54
2841;BME280;53423;49.224;12.074;2022-12-18T04:10:52;99189.88;;;-4.14;69.69
2841;BME280;53423;49.224;12.074;2022-12-18T04:13:27;99198.91;;;-3.99;69.70
2841;BME280;53423;49.224;12.074;2022-12-18T04:15:56;99189.75;;;-4.09;69.48
2841;BME280;53423;49.224;12.074;2022-12-18T04:18:24;99186.72;;;-4.25;69.50
2841;BME280;53423;49.224;12.074;2022-12-18T04:20:52;99185.28;;;-4.36;70.72
2841;BME280;53423;49.224;12.074;2022-12-18T04:23:21;99183.88;;;-4.48;71.15
2841;BME280;53423;49.224;12.074;2022-12-18T04:25:49;99182.41;;;-4.58;72.03
2841;BME280;53423;49.224;12.074;2022-12-18T04:28:17;99189.09;;;-4.52;71.98
2841;BME280;53423;49.224;12.074;2022-12-18T04:30:47;99193.00;;;-4.38;70.76
2841;BME280;53423;49.224;12.074;2022-12-18T04:33:15;99206.75;;;-4.42;71.63
2841;BME280;53423;49.224;12.074;2022-12-18T04:35:43;99212.19;;;-4.19;70.98
2841;BME280;53423;49.224;12.074;2022-12-18T04:38:11;99212.66;;;-4.05;70.34
2841;BME280;53423;49.224;12.074;2022-12-18T04:40:39;99205.47;;;-3.89;69.65
2841;BME280;53423;49.224;12.074;2022-12-18T04:43:07;99201.38;;;-3.96;70.16
2841;BME280;53423;49.224;12.074;2022-12-18T04:45:35;99211.91;;;-4.08;70.12
2841;BME280;53423;49.224;12.074;2022-12-18T04:48:05;99210.59;;;-4.24;71.16
2841;BME280;53423;49.224;12.074;2022-12-18T04:50:33;99213.47;;;-4.03;70.49
2841;BME280;53423;49.224;12.074;2022-12-18T04:53:01;99210.50;;;-3.86;70.03
2841;BME280;53423;49.224;12.074;2022-12-18T04:55:29;99208.88;;;-3.89;70.09
2841;BME280;53423;49.224;12.074;2022-12-18T04:57:57;99215.19;;;-4.03;70.95
2841;BME280;53423;49.224;12.074;2022-12-18T05:00:25;99223.72;;;-4.03;70.21
2841;BME280;53423;49.224;12.074;2022-12-18T05:02:53;99218.00;;;-4.12;70.91
2841;BME280;53423;49.224;12.074;2022-12-18T05:05:23;99215.16;;;-4.00;70.46
2841;BME280;53423;49.224;12.074;2022-12-18T05:07:51;99212.41;;;-3.94;69.95
2841;BME280;53423;49.224;12.074;2022-12-18T05:10:18;99213.78;;;-3.81;69.76
2841;BME280;53423;49.224;12.074;2022-12-18T05:12:46;99220.53;;;-3.77;69.44
2841;BME280;53423;49.224;12.074;2022-12-18T05:15:28;99213.41;;;-3.66;69.99
2841;BME280;53423;49.224;12.074;2022-12-18T05:17:57;99211.50;;;-3.59;69.42
2841;BME280;53423;49.224;12.074;2022-12-18T05:20:27;99208.53;;;-3.75;68.42
2841;BME280;53423;49.224;12.074;2022-12-18T05:22:55;99220.91;;;-3.92;69.96
2841;BME280;53423;49.224;12.074;2022-12-18T05:25:23;99216.66;;;-3.93;70.05
2841;BME280;53423;49.224;12.074;2022-12-18T05:27:51;99223.91;;;-3.75;70.15
2841;BME280;53423;49.224;12.074;2022-12-18T05:30:19;99231.41;;;-3.69;69.86
2841;BME280;53423;49.224;12.074;2022-12-18T05:32:47;99226.19;;;-3.66;69.19
2841;BME280;53423;49.224;12.074;2022-12-18T05:35:15;99220.53;;;-3.77;70.03
2841;BME280;53423;49.224;12.074;2022-12-18T05:37:44;99216.50;;;-3.53;69.15
2841;BME280;53423;49.224;12.074;2022-12-18T05:40:12;99208.84;;;-3.55;69.57
2841;BME280;53423;49.224;12.074;2022-12-18T05:42:40;99217.34;;;-3.53;69.14
2841;BME280;53423;49.224;12.074;2022-12-18T05:45:09;99231.69;;;-3.47;69.13
2841;BME280;53423;49.224;12.074;2022-12-18T05:47:37;99218.38;;;-3.60;69.13
2841;BME280;53423;49.224;12.074;2022-12-18T05:50:06;99230.97;;;-3.52;69.00
2841;BME280;53423;49.224;12.074;2022-12-18T05:52:34;99235.91;;;-3.45;68.88
2841;BME280;53423;49.224;12.074;2022-12-18T05:55:04;99239.28;;;-3.43;68.98
2841;BME280;53423;49.224;12.074;2022-12-18T05:57:32;99248.72;;;-3.45;69.18
2841;BME280;53423;49.224;12.074;2022-12-18T06:00:00;99254.44;;;-3.35;68.14
2841;BME280;53423;49.224;12.074;2022-12-18T06:02:28;99252.88;;;-3.41;68.66
2841;BME280;53423;49.224;12.074;2022-12-18T06:04:56;99246.63;;;-3.31;68.15
2841;BME280;53423;49.224;12.074;2022-12-18T06:07:24;99245.16;;;-3.39;68.60
2841;BME280;53423;49.224;12.074;2022-12-18T06:09:52;99236.44;;;-3.34;68.31
2841;BME280;53423;49.224;12.074;2022-12-18T06:12:21;99242.47;;;-3.35;68.53
2841;BME280;53423;49.224;12.074;2022-12-18T06:14:49;99252.28;;;-3.50;69.29
2841;BME280;53423;49.224;12.074;2022-12-18T06:17:17;99251.28;;;-3.45;68.09
2841;BME280;53423;49.224;12.074;2022-12-18T06:19:44;99246.88;;;-3.40;68.61
2841;BME280;53423;49.224;12.074;2022-12-18T06:22:13;99245.84;;;-3.33;68.37
2841;BME280;53423;49.224;12.074;2022-12-18T06:24:40;99240.69;;;-3.31;68.71
2841;BME280;53423;49.224;12.074;2022-12-18T06:27:08;99242.34;;;-3.30;67.64
2841;BME280;53423;49.224;12.074;2022-12-18T06:29:37;99246.78;;;-3.37;68.26
2841;BME280;53423;49.224;12.074;2022-12-18T06:32:05;99253.75;;;-3.42;68.04
2841;BME280;53423;49.224;12.074;2022-12-18T06:34:34;99256.19;;;-3.37;68.52
2841;BME280;53423;49.224;12.074;2022-12-18T06:37:01;99271.03;;;-3.48;68.52
2841;BME280;53423;49.224;12.074;2022-12-18T06:39:30;99276.31;;;-3.56;68.63
2841;BME280;53423;49.224;12.074;2022-12-18T06:41:58;99265.75;;;-3.44;68.77
2841;BME280;53423;49.224;12.074;2022-12-18T06:44:25;99263.78;;;-3.33;68.64
2841;BME280;53423;49.224;12.074;2022-12-18T06:46:55;99265.66;;;-3.39;68.70
2841;BME280;53423;49.224;12.074;2022-12-18T06:49:23;99275.25;;;-3.47;69.07
2841;BME280;53423;49.224;12.074;2022-12-18T06:51:56;99270.88;;;-3.44;68.66
2841;BME280;53423;49.224;12.074;2022-12-18T06:54:24;99260.78;;;-3.48;68.20
2841;BME280;53423;49.224;12.074;2022-12-18T06:56:52;99268.69;;;-3.57;69.57
2841;BME280;53423;49.224;12.074;2022-12-18T06:59:19;99273.13;;;-3.64;69.84
2841;BME280;53423;49.224;12.074;2022-12-18T07:01:47;99271.19;;;-3.56;68.98
2841;BME280;53423;49.224;12.074;2022-12-18T07:04:17;99274.03;;;-3.33;68.27
2841;BME280;53423;49.224;12.074;2022-12-18T07:06:45;99280.84;;;-3.65;68.93
2841;BME280;53423;49.224;12.074;2022-12-18T07:09:13;99288.28;;;-3.55;69.69
2841;BME280;53423;49.224;12.074;2022-12-18T07:11:41;99294.88;;;-3.46;69.20
2841;BME280;53423;49.224;12.074;2022-12-18T07:14:09;99300.53;;;-3.34;68.14
2841;BME280;53423;49.224;12.074;2022-12-18T07:16:37;99301.03;;;-3.20;67.89
2841;BME280;53423;49.224;12.074;2022-12-18T07:19:05;99307.63;;;-3.43;68.31
2841;BME280;53423;49.224;12.074;2022-12-18T07:21:34;99299.63;;;-3.31;68.72
2841;BME280;53423;49.224;12.074;2022-12-18T07:24:03;99294.31;;;-3.25;68.21
2841;BME280;53423;49.224;12.074;2022-12-18T07:26:31;99290.03;;;-3.25;67.85
2841;BME280;53423;49.224;12.074;2022-12-18T07:28:59;99278.53;;;-3.10;67.26
2841;BME280;53423;49.224;12.074;2022-12-18T07:31:27;99271.56;;;-3.05;67.28
2841;BME280;53423;49.224;12.074;2022-12-18T07:33:55;99273.13;;;-3.00;67.06
2841;BME280;53423;49.224;12.074;2022-12-18T07:36:23;99266.97;;;-3.25;68.15
2841;BME280;53423;49.224;12.074;2022-12-18T07:38:53;99272.47;;;-3.06;67.13
2841;BME280;53423;49.224;12.074;2022-12-18T07:41:21;99264.84;;;-3.09;66.62
2841;BME280;53423;49.224;12.074;2022-12-18T07:43:49;99260.97;;;-3.24;68.07
2841;BME280;53423;49.224;12.074;2022-12-18T07:46:17;99274.75;;;-2.97;66.99
2841;BME280;53423;49.224;12.074;2022-12-18T07:48:45;99281.78;;;-3.04;66.97
2841;BME280;53423;49.224;12.074;2022-12-18T07:51:16;99282.84;;;-3.12;67.36
2841;BME280;53423;49.224;12.074;2022-12-18T07:53:44;99279.28;;;-3.07;66.75
2841;BME280;53423;49.224;12.074;2022-12-18T07:56:19;99295.25;;;-2.96;67.04
2841;BME280;53423;49.224;12.074;2022-12-18T07:58:54;99308.97;;;-2.98;66.91
2841;BME280;53423;49.224;12.074;2022-12-18T08:01:23;99305.56;;;-3.29;68.29
2841;BME280;53423;49.224;12.074;2022-12-18T08:03:51;99313.41;;;-3.37;67.37
2841;BME280;53423;49.224;12.074;2022-12-18T08:06:19;99319.63;;;-3.45;68.65
2841;BME280;53423;49.224;12.074;2022-12-18T08:08:51;99315.47;;;-3.51;68.25
2841;BME280;53423;49.224;12.074;2022-12-18T08:11:22;99324.91;;;-3.51;68.60
2841;BME280;53423;49.224;12.074;2022-12-18T08:13:50;99322.09;;;-3.42;67.84
2841;BME280;53423;49.224;12.074;2022-12-18T08:16:19;99322.31;;;-3.85;69.74
2841;BME280;53423;49.224;12.074;2022-12-18T08:18:48;99325.41;;;-3.72;68.99
2841;BME280;53423;49.224;12.074;2022-12-18T08:21:18;99316.38;;;-3.52;68.71
2841;BME280;53423;49.224;12.074;2022-12-18T08:23:48;99319.84;;;-3.90;69.39
2841;BME280;53423;49.224;12.074;2022-12-18T08:26:17;99322.34;;;-3.87;69.03
2841;BME280;53423;49.224;12.074;2022-12-18T08:28:48;99331.19;;;-3.64;69.02
2841;BME280;53423;49.224;12.074;2022-12-18T08:31:17;99331.00;;;-3.57;68.01
2841;BME280;53423;49.224;12.074;2022-12-18T08:33:45;99332.75;;;-3.59;68.69
2841;BME280;53423;49.224;12.074;2022-12-18T08:36:16;99338.91;;;-3.66;68.06
2841;BME280;53423;49.224;12.074;2022-12-18T08:38:44;99347.88;;;-3.48;68.33
2841;BME280;53423;49.224;12.074;2022-12-18T08:41:14;99342.38;;;-3.33;67.59
2841;BME280;53423;49.224;12.074;2022-12-18T08:43:42;99338.34;;;-3.10;66.64
2841;BME280;53423;49.224;12.074;2022-12-18T08:46:34;99339.25;;;-3.12;66.28
2841;BME280;53423;49.224;12.074;2022-12-18T08:49:03;99343.16;;;-3.30;66.59
2841;BME280;53423;49.224;12.074;2022-12-18T08:51:31;99343.28;;;-3.36;65.75
2841;BME280;53423;49.224;12.074;2022-12-18T08:53:59;99339.44;;;-3.18;66.66
2841;BME280;53423;49.224;12.074;2022-12-18T08:56:28;99342.84;;;-3.18;66.06
2841;BME280;53423;49.224;12.074;2022-12-18T08:58:57;99338.03;;;-2.98;65.40
2841;BME280;53423;49.224;12.074;2022-12-18T09:01:25;99346.19;;;-2.84;65.22
2841;BME280;53423;49.224;12.074;2022-12-18T09:03:55;99343.38;;;-2.75;64.60
2841;BME280;53423;49.224;12.074;2022-12-18T09:06:23;99347.63;;;-3.04;65.83
2841;BME280;53423;49.224;12.074;2022-12-18T09:08:53;99345.91;;;-2.73;65.15
2841;BME280;53423;49.224;12.074;2022-12-18T09:11:23;99354.38;;;-3.02;65.83
2841;BME280;53423;49.224;12.074;2022-12-18T09:13:52;99352.13;;;-3.14;66.15
2841;BME280;53423;49.224;12.074;2022-12-18T09:16:21;99344.81;;;-3.29;66.95
2841;BME280;53423;49.224;12.074;2022-12-18T09:18:58;99339.72;;;-2.97;65.61
2841;BME280;53423;49.224;12.074;2022-12-18T09:21:28;99344.91;;;-3.00;65.74
2841;BME280;53423;49.224;12.074;2022-12-18T09:23:58;99346.69;;;-3.02;65.83
2841;BME280;53423;49.224;12.074;2022-12-18T09:26:26;99343.41;;;-3.07;66.87
2841;BME280;53423;49.224;12.074;2022-12-18T09:28:54;99345.81;;;-3.02;65.75
2841;BME280;53423;49.224;12.074;2022-12-18T09:31:23;99338.47;;;-3.14;66.90
2841;BME280;53423;49.224;12.074;2022-12-18T09:33:52;99337.44;;;-3.41;67.12
2841;BME280;53423;49.224;12.074;2022-12-18T09:36:21;99344.91;;;-3.32;66.19
2841;BME280;53423;49.224;12.074;2022-12-18T09:38:49;99347.84;;;-3.47;67.63
2841;BME280;53423;49.224;12.074;2022-12-18T09:44:24;99341.00;;;-3.46;67.04
2841;BME280;53423;49.224;12.074;2022-12-18T09:47:10;99340.16;;;-3.47;68.21
2841;BME280;53423;49.224;12.074;2022-12-18T09:49:43;99327.03;;;-3.35;67.88
2841;BME280;53423;49.224;12.074;2022-12-18T09:52:17;99319.22;;;-3.30;66.88
2841;BME280;53423;49.224;12.074;2022-12-18T09:54:50;99313.97;;;-3.58;67.83
2841;BME280;53423;49.224;12.074;2022-12-18T09:57:21;99307.41;;;-3.04;66.85
2841;BME280;53423;49.224;12.074;2022-12-18T09:59:54;99314.38;;;-3.09;66.16
2841;BME280;53423;49.224;12.074;2022-12-18T10:02:26;99313.44;;;-3.05;66.04
2841;BME280;53423;49.224;12.074;2022-12-18T10:05:03;99310.41;;;-3.20;67.28
2841;BME280;53423;49.224;12.074;2022-12-18T10:07:42;99305.69;;;-3.03;66.36
2841;BME280;53423;49.224;12.074;2022-12-18T10:10:26;99318.09;;;-2.88;64.80
2841;BME280;53423;49.224;12.074;2022-12-18T10:13:02;99315.34;;;-2.81;65.37
2841;BME280;53423;49.224;12.074;2022-12-18T10:15:36;99309.81;;;-2.98;66.00
2841;BME280;53423;49.224;12.074;2022-12-18T10:18:21;99312.59;;;-2.75;65.61
2841;BME280;53423;49.224;12.074;2022-12-18T10:20:53;99313.81;;;-2.57;64.93
2841;BME280;53423;49.224;12.074;2022-12-18T10:23:29;99314.34;;;-2.77;64.75
2841;BME280;53423;49.224;12.074;2022-12-18T10:26:02;99303.13;;;-2.43;64.17
2841;BME280;53423;49.224;12.074;2022-12-18T10:28:31;99300.19;;;-2.59;64.83
2841;BME280;53423;49.224;12.074;2022-12-18T10:30:59;99299.03;;;-2.49;64.60
2841;BME280;53423;49.224;12.074;2022-12-18T10:33:29;99294.81;;;-2.52;64.78
2841;BME280;53423;49.224;12.074;2022-12-18T10:35:58;99287.28;;;-2.28;63.25
2841;BME280;53423;49.224;12.074;2022-12-18T10:38:29;99278.88;;;-2.33;63.66
2841;BME280;53423;49.224;12.074;2022-12-18T10:40:59;99272.03;;;-1.79;62.53
2841;BME280;53423;49.224;12.074;2022-12-18T10:43:29;99273.47;;;-1.46;62.07
2841;BME280;53423;49.224;12.074;2022-12-18T10:46:12;99260.34;;;-1.37;61.17
2841;BME280;53423;49.224;12.074;2022-12-18T10:48:50;99260.91;;;-1.04;60.70
2841;BME280;53423;49.224;12.074;2022-12-18T10:51:21;99255.97;;;-1.35;61.99
2841;BME280;53423;49.224;12.074;2022-12-18T10:53:57;99257.03;;;-1.16;60.24
2841;BME280;53423;49.224;12.074;2022-12-18T10:56:28;99258.28;;;-1.52;62.05
2841;BME280;53423;49.224;12.074;2022-12-18T10:58:59;99257.31;;;-1.00;61.31
2841;BME280;53423;49.224;12.074;2022-12-18T11:01:27;99265.19;;;-0.57;60.08
2841;BME280;53423;49.224;12.074;2022-12-18T11:04:02;99266.41;;;-0.44;59.48
2841;BME280;53423;49.224;12.074;2022-12-18T11:06:52;99268.63;;;-0.81;60.18
2841;BME280;53423;49.224;12.074;2022-12-18T11:09:23;99276.97;;;-1.23;61.26
2841;BME280;53423;49.224;12.074;2022-12-18T11:11:53;99280.22;;;-0.93;61.27
2841;BME280;53423;49.224;12.074;2022-12-18T11:14:23;99280.34;;;-0.97;60.55
2841;BME280;53423;49.224;12.074;2022-12-18T11:16:52;99286.72;;;-1.07;61.45
2841;BME280;53423;49.224;12.074;2022-12-18T11:19:41;99287.47;;;-1.29;62.93
2841;BME280;53423;49.224;12.074;2022-12-18T11:22:19;99282.91;;;-0.73;60.95
2841;BME280;53423;49.224;12.074;2022-12-18T11:24:56;99287.38;;;-0.78;61.33
2841;BME280;53423;49.224;12.074;2022-12-18T11:27:51;99294.09;;;-0.74;61.28
2841;BME280;53423;49.224;12.074;2022-12-18T11:30:25;99283.91;;;-0.77;60.04
2841;BME280;53423;49.224;12.074;2022-12-18T11:32:56;99277.69;;;-0.94;61.35
2841;BME280;53423;49.224;12.074;2022-12-18T11:35:44;99267.44;;;-0.50;59.88
2841;BME280;53423;49.224;12.074;2022-12-18T11:38:20;99274.34;;;-0.73;60.58
2841;BME280;53423;49.224;12.074;2022-12-18T11:40:58;99271.91;;;-0.32;59.83
2841;BME280;53423;49.224;12.074;2022-12-18T11:43:29;99273.09;;;-0.40;60.44
2841;BME280;53423;49.224;12.074;2022-12-18T11:46:04;99264.31;;;-0.35;60.14
2841;BME280;53423;49.224;12.074;2022-12-18T11:48:36;99261.78;;;-0.15;59.32
2841;BME280;53423;49.224;12.074;2022-12-18T11:51:12;99252.56;;;-0.65;59.86
2841;BME280;53423;49.224;12.074;2022-12-18T11:53:43;99260.53;;;-0.48;60.79
2841;BME280;53423;49.224;12.074;2022-12-18T11:56:30;99269.41;;;-0.12;59.22
2841;BME280;53423;49.224;12.074;2022-12-18T11:59:07;99275.06;;;-0.02;59.67
2841;BME280;53423;49.224;12.074;2022-12-18T12:01:45;99279.16;;;1.63;55.08
2841;BME280;53423;49.224;12.074;2022-12-18T12:07:33;99271.06;;;3.25;48.11
2841;BME280;53423;49.224;12.074;2022-12-18T12:10:14;99255.09;;;4.42;45.11
2841;BME280;53423;49.224;12.074;2022-12-18T12:12:59;99256.56;;;3.54;47.15
2841;BME280;53423;49.224;12.074;2022-12-18T12:15:39;99251.88;;;3.45;46.61
2841;BME280;53423;49.224;12.074;2022-12-18T12:18:20;99246.75;;;2.27;48.57
2841;BME280;53423;49.224;12.074;2022-12-18T12:20:53;99246.75;;;1.56;50.21
2841;BME280;53423;49.224;12.074;2022-12-18T12:23:36;99233.75;;;1.57;49.83
2841;BME280;53423;49.224;12.074;2022-12-18T12:26:10;99224.44;;;2.07;47.97
2841;BME280;53423;49.224;12.074;2022-12-18T12:29:01;99228.09;;;1.49;50.24
2841;BME280;53423;49.224;12.074;2022-12-18T12:31:49;99226.13;;;0.98;51.82
2841;BME280;53423;49.224;12.074;2022-12-18T12:34:22;99220.63;;;0.86;51.67
2841;BME280;53423;49.224;12.074;2022-12-18T12:37:00;99227.50;;;0.67;53.25
2841;BME280;53423;49.224;12.074;2022-12-18T12:39:34;99221.16;;;0.34;53.92
2841;BME280;53423;49.224;12.074;2022-12-18T12:42:05;99217.75;;;0.13;54.38
2841;BME280;53423;49.224;12.074;2022-12-18T12:44:57;99220.75;;;-0.41;56.13
2841;BME280;53423;49.224;12.074;2022-12-18T12:47:28;99216.94;;;-0.31;55.41
2841;BME280;53423;49.224;12.074;2022-12-18T12:49:59;99220.25;;;-0.50;56.64
2841;BME280;53423;49.224;12.074;2022-12-18T12:52:35;99208.16;;;-0.48;57.06
2841;BME280;53423;49.224;12.074;2022-12-18T12:55:12;99218.88;;;-0.59;57.46
2841;BME280;53423;49.224;12.074;2022-12-18T12:57:46;99223.81;;;-0.53;57.72
2841;BME280;53423;49.224;12.074;2022-12-18T13:00:19;99224.13;;;-0.17;56.83
2841;BME280;53423;49.224;12.074;2022-12-18T13:02:54;99221.13;;;-0.28;57.98
2841;BME280;53423;49.224;12.074;2022-12-18T13:05:28;99218.00;;;-0.15;57.69
2841;BME280;53423;49.224;12.074;2022-12-18T13:08:03;99218.88;;;-0.59;58.28
2841;BME280;53423;49.224;12.074;2022-12-18T13:10:34;99217.38;;;-1.10;61.91
2841;BME280;53423;49.224;12.074;2022-12-18T13:13:04;99213.94;;;-0.86;60.26
2841;BME280;53423;49.224;12.074;2022-12-18T13:15:38;99216.13;;;-0.76;59.85
2841;BME280;53423;49.224;12.074;2022-12-18T13:18:17;99214.00;;;-0.88;59.22
2841;BME280;53423;49.224;12.074;2022-12-18T13:20:47;99224.25;;;-0.65;58.34
2841;BME280;53423;49.224;12.074;2022-12-18T13:23:33;99220.78;;;-0.64;58.23
2841;BME280;53423;49.224;12.074;2022-12-18T13:26:33;99227.41;;;-0.35;57.78
2841;BME280;53423;49.224;12.074;2022-12-18T13:29:03;99227.66;;;-0.41;57.83
2841;BME280;53423;49.224;12.074;2022-12-18T13:31:59;99217.69;;;-0.50;56.98
2841;BME280;53423;49.224;12.074;2022-12-18T13:34:29;99216.81;;;-0.28;57.40